Wetterstation Oberdrees
Wetterdaten: aktuell Sonntag, 21.01.2018 11:00
Datum Zeit Temp. A. Feuchte A. Luftdruck Regen Wind Richtung Richtung Taupunkt Windchill Windben
21.01.2018 11:00 3,0 C 89 % 1003 hPa 0,0 l/m 6,5 km/h (2 Bft) W-NW 292 1,4 C 2,9 C 11,2 km/h (2 Bft)
21.01.2018 10:50 2,8 C 89 % 1003 hPa 0,0 l/m 10,4 km/h (2 Bft) W 270 1,2 C -0,7 C 15,5 km/h (3 Bft)
21.01.2018 10:40 2,7 C 89 % 1003 hPa 0,0 l/m 5,4 km/h (2 Bft) W 270 1,1 C 2,7 C 6,5 km/h (2 Bft)
21.01.2018 10:30 2,6 C 89 % 1003 hPa 0,0 l/m 6,1 km/h (2 Bft) W-SW 247 1,0 C 2,6 C 8,6 km/h (2 Bft)
21.01.2018 10:20 2,5 C 90 % 1003 hPa 0,0 l/m 7,6 km/h (2 Bft) W-SW 247 1,0 C 1,3 C 11,2 km/h (2 Bft)
21.01.2018 10:10 2,3 C 90 % 1003 hPa 0,0 l/m 9,7 km/h (2 Bft) W-NW 292 0,8 C -0,7 C 13,3 km/h (3 Bft)
21.01.2018 10:00 2,0 C 91 % 1003 hPa 0,0 l/m 6,8 km/h (2 Bft) W 270 0,7 C 1,6 C 11,2 km/h (2 Bft)
21.01.2018 09:50 1,9 C 91 % 1003 hPa 0,0 l/m 5,4 km/h (2 Bft) W-SW 247 0,6 C 1,9 C 8,6 km/h (2 Bft)
21.01.2018 09:40 1,6 C 92 % 1003 hPa 0,0 l/m 5,0 km/h (1 Bft) SW 225 0,4 C 1,6 C 6,5 km/h (2 Bft)
21.01.2018 09:30 1,5 C 92 % 1002 hPa 0,0 l/m 5,0 km/h (1 Bft) W 270 0,3 C 1,5 C 6,5 km/h (2 Bft)
21.01.2018 09:20 1,5 C 92 % 1002 hPa 0,0 l/m 6,8 km/h (2 Bft) W 270 0,3 C 1,1 C 11,2 km/h (2 Bft)
21.01.2018 09:10 1,4 C 92 % 1002 hPa 0,0 l/m 4,7 km/h (1 Bft) W-SW 247 0,2 C 1,4 C 6,5 km/h (2 Bft)
21.01.2018 09:00 1,2 C 92 % 1002 hPa 0,0 l/m 3,2 km/h (1 Bft) W-SW 247 0,0 C 1,2 C 8,6 km/h (2 Bft)
21.01.2018 08:50 1,2 C 92 % 1002 hPa 0,0 l/m 4,3 km/h (1 Bft) SW 225 0,0 C 1,2 C 6,5 km/h (2 Bft)
21.01.2018 08:40 1,0 C 92 % 1002 hPa 0,0 l/m 6,1 km/h (2 Bft) W 270 -0,2 C 1,0 C 8,6 km/h (2 Bft)
21.01.2018 08:30 1,0 C 92 % 1001 hPa 0,0 l/m 5,0 km/h (1 Bft) W 270 -0,2 C 1,0 C 6,5 km/h (2 Bft)
21.01.2018 08:20 1,0 C 92 % 1001 hPa 0,0 l/m 1,1 km/h (1 Bft) W 270 -0,2 C 1,0 C 4,3 km/h (1 Bft)
21.01.2018 08:10 1,0 C 92 % 1001 hPa 0,0 l/m 6,1 km/h (2 Bft) W 270 -0,2 C 1,0 C 8,6 km/h (2 Bft)
21.01.2018 08:00 1,1 C 92 % 1001 hPa 0,0 l/m 2,9 km/h (1 Bft) W-SW 247 -0,1 C 1,1 C 6,5 km/h (2 Bft)
21.01.2018 07:50 1,2 C 92 % 1001 hPa 0,0 l/m 4,0 km/h (1 Bft) W 270 0,0 C 1,2 C 6,5 km/h (2 Bft)
21.01.2018 07:40 1,4 C 92 % 1000 hPa 0,0 l/m 5,4 km/h (2 Bft) W 270 0,2 C 1,4 C 8,6 km/h (2 Bft)
21.01.2018 07:30 1,5 C 92 % 1000 hPa 0,0 l/m 6,1 km/h (2 Bft) W 270 0,3 C 1,5 C 8,6 km/h (2 Bft)
21.01.2018 07:20 1,5 C 92 % 1000 hPa 0,0 l/m 8,3 km/h (2 Bft) W-SW 247 0,3 C -0,3 C 11,2 km/h (2 Bft)
21.01.2018 07:10 1,5 C 92 % 1000 hPa 0,0 l/m 4,3 km/h (1 Bft) SW 225 0,3 C 1,5 C 8,6 km/h (2 Bft)
21.01.2018 07:00 1,6 C 92 % 999 hPa 0,0 l/m 7,6 km/h (2 Bft) NW 315 0,4 C 0,4 C 13,3 km/h (3 Bft)
21.01.2018 06:50 1,6 C 92 % 999 hPa 0,0 l/m 6,5 km/h (2 Bft) W 270 0,4 C 1,5 C 8,6 km/h (2 Bft)
21.01.2018 06:40 1,6 C 92 % 999 hPa 0,0 l/m 4,3 km/h (1 Bft) W-SW 247 0,4 C 1,6 C 6,5 km/h (2 Bft)
21.01.2018 06:30 1,7 C 92 % 999 hPa 0,0 l/m 4,3 km/h (1 Bft) SW 225 0,5 C 1,7 C 6,5 km/h (2 Bft)
21.01.2018 06:20 1,9 C 92 % 999 hPa 0,0 l/m 6,5 km/h (2 Bft) W-SW 247 0,7 C 1,8 C 8,6 km/h (2 Bft)
21.01.2018 06:10 1,9 C 92 % 999 hPa 0,0 l/m 5,8 km/h (2 Bft) W-SW 247 0,7 C 1,9 C 8,6 km/h (2 Bft)
21.01.2018 06:00 2,0 C 92 % 999 hPa 0,0 l/m 5,0 km/h (1 Bft) W-NW 292 0,8 C 2,0 C 6,5 km/h (2 Bft)
21.01.2018 05:50 2,0 C 92 % 998 hPa 0,0 l/m 5,4 km/h (2 Bft) SW 225 0,8 C 2,0 C 6,5 km/h (2 Bft)
21.01.2018 05:40 2,2 C 92 % 998 hPa 0,0 l/m 8,6 km/h (2 Bft) SW 225 1,0 C 0,1 C 13,3 km/h (3 Bft)
21.01.2018 05:30 2,2 C 92 % 998 hPa 0,0 l/m 4,3 km/h (1 Bft) NW 315 1,0 C 2,2 C 6,5 km/h (2 Bft)
21.01.2018 05:20 2,2 C 92 % 998 hPa 0,0 l/m 8,6 km/h (2 Bft) SW 225 1,0 C 0,1 C 8,6 km/h (2 Bft)
21.01.2018 05:10 2,2 C 92 % 997 hPa 0,0 l/m 5,0 km/h (1 Bft) W-NW 292 1,0 C 2,2 C 11,2 km/h (2 Bft)
21.01.2018 05:00 2,2 C 92 % 997 hPa 0,0 l/m 6,5 km/h (2 Bft) SW 225 1,0 C 2,1 C 15,5 km/h (3 Bft)
21.01.2018 04:50 2,1 C 93 % 997 hPa 0,0 l/m 5,4 km/h (2 Bft) NW 315 1,1 C 2,1 C 8,6 km/h (2 Bft)
21.01.2018 04:40 2,0 C 93 % 997 hPa 0,0 l/m 7,9 km/h (2 Bft) NW 315 1,0 C 0,5 C 11,2 km/h (2 Bft)
21.01.2018 04:30 2,0 C 93 % 997 hPa 0,0 l/m 4,7 km/h (1 Bft) W-SW 247 1,0 C 2,0 C 6,5 km/h (2 Bft)
21.01.2018 04:20 2,0 C 93 % 996 hPa 0,0 l/m 6,1 km/h (2 Bft) N-NW 337 1,0 C 2,0 C 8,6 km/h (2 Bft)
21.01.2018 04:10 2,0 C 93 % 996 hPa 0,0 l/m 5,8 km/h (2 Bft) W-NW 292 1,0 C 2,0 C 11,2 km/h (2 Bft)
21.01.2018 04:00 1,9 C 93 % 996 hPa 0,0 l/m 8,6 km/h (2 Bft) W-SW 247 0,9 C -0,2 C 11,2 km/h (2 Bft)
21.01.2018 03:50 1,9 C 93 % 996 hPa 0,0 l/m 7,6 km/h (2 Bft) W-NW 292 0,9 C 0,7 C 13,3 km/h (3 Bft)
21.01.2018 03:40 1,8 C 93 % 996 hPa 0,0 l/m 9,4 km/h (2 Bft) W-SW 247 0,8 C -1,0 C 13,3 km/h (3 Bft)
21.01.2018 03:30 1,8 C 93 % 995 hPa 0,0 l/m 5,0 km/h (1 Bft) W 270 0,8 C 1,8 C 8,6 km/h (2 Bft)
21.01.2018 03:20 2,0 C 93 % 995 hPa 0,0 l/m 5,8 km/h (2 Bft) NW 315 1,0 C 2,0 C 8,6 km/h (2 Bft)
21.01.2018 03:10 2,1 C 93 % 995 hPa 0,0 l/m 7,6 km/h (2 Bft) W-NW 292 1,1 C 0,9 C 8,6 km/h (2 Bft)
21.01.2018 03:00 2,1 C 93 % 995 hPa 0,0 l/m 4,0 km/h (1 Bft) N-NW 337 1,1 C 2,1 C 8,6 km/h (2 Bft)
21.01.2018 02:50 2,0 C 93 % 995 hPa 0,0 l/m 7,6 km/h (2 Bft) NW 315 1,0 C 0,8 C 13,3 km/h (3 Bft)
21.01.2018 02:40 2,0 C 93 % 995 hPa 0,0 l/m 6,5 km/h (2 Bft) N-NW 337 1,0 C 1,9 C 11,2 km/h (2 Bft)
21.01.2018 02:30 2,0 C 93 % 994 hPa 0,0 l/m 6,5 km/h (2 Bft) W 270 1,0 C 1,9 C 11,2 km/h (2 Bft)
21.01.2018 02:20 2,0 C 93 % 994 hPa 0,0 l/m 11,2 km/h (2 Bft) NW 315 1,0 C -2,1 C 15,5 km/h (3 Bft)
21.01.2018 02:10 2,0 C 93 % 994 hPa 0,0 l/m 6,8 km/h (2 Bft) W 270 1,0 C 1,6 C 11,2 km/h (2 Bft)
21.01.2018 02:00 2,0 C 93 % 993 hPa 0,0 l/m 5,8 km/h (2 Bft) S-SW 202 1,0 C 2,0 C 11,2 km/h (2 Bft)
21.01.2018 01:50 2,0 C 92 % 993 hPa 0,0 l/m 9,4 km/h (2 Bft) W-NW 292 0,8 C -0,8 C 15,5 km/h (3 Bft)
21.01.2018 01:40 2,0 C 93 % 993 hPa 0,0 l/m 9,4 km/h (2 Bft) NW 315 1,0 C -0,8 C 15,5 km/h (3 Bft)
21.01.2018 01:30 2,0 C 92 % 993 hPa 0,0 l/m 8,6 km/h (2 Bft) N-NW 337 0,8 C -0,1 C 13,3 km/h (3 Bft)
21.01.2018 01:20 2,0 C 92 % 993 hPa 0,0 l/m 6,5 km/h (2 Bft) S-SW 202 0,8 C 1,9 C 11,2 km/h (2 Bft)
21.01.2018 01:10 2,0 C 92 % 992 hPa 0,0 l/m 3,6 km/h (1 Bft) W 270 0,8 C 2,0 C 6,5 km/h (2 Bft)
21.01.2018 01:00 2,0 C 92 % 992 hPa 0,0 l/m 7,2 km/h (2 Bft) NW 315 0,8 C 1,2 C 8,6 km/h (2 Bft)
21.01.2018 00:50 2,0 C 92 % 992 hPa 0,0 l/m 4,3 km/h (1 Bft) N 360 0,8 C 2,0 C 6,5 km/h (2 Bft)
21.01.2018 00:40 2,0 C 92 % 992 hPa 0,0 l/m 6,8 km/h (2 Bft) W-SW 247 0,8 C 1,6 C 11,2 km/h (2 Bft)
21.01.2018 00:30 1,9 C 92 % 991 hPa 0,0 l/m 6,8 km/h (2 Bft) NW 315 0,7 C 1,5 C 11,2 km/h (2 Bft)
21.01.2018 00:20 1,9 C 92 % 991 hPa 0,0 l/m 5,8 km/h (2 Bft) N-NW 337 0,7 C 1,9 C 11,2 km/h (2 Bft)
21.01.2018 00:10 1,8 C 92 % 991 hPa 0,0 l/m 1,8 km/h (1 Bft) SW 225 0,6 C 1,8 C 4,3 km/h (1 Bft)
21.01.2018 00:00 1,8 C 92 % 991 hPa 0,0 l/m 6,8 km/h (2 Bft) NW 315 0,6 C 1,4 C 8,6 km/h (2 Bft)
20.01.2018 23:50 1,7 C 92 % 991 hPa 0,0 l/m 6,5 km/h (2 Bft) W-NW 292 0,5 C 1,6 C 8,6 km/h (2 Bft)
20.01.2018 23:40 1,7 C 92 % 990 hPa 0,0 l/m 4,0 km/h (1 Bft) W-NW 292 0,5 C 1,7 C 6,5 km/h (2 Bft)
20.01.2018 23:30 1,7 C 92 % 990 hPa 0,0 l/m 5,4 km/h (2 Bft) NW 315 0,5 C 1,7 C 8,6 km/h (2 Bft)
20.01.2018 23:20 1,7 C 92 % 990 hPa 0,0 l/m 6,5 km/h (2 Bft) W-SW 247 0,5 C 1,6 C 8,6 km/h (2 Bft)
20.01.2018 23:10 1,6 C 92 % 990 hPa 0,0 l/m 6,5 km/h (2 Bft) N-NW 337 0,4 C 1,5 C 8,6 km/h (2 Bft)
20.01.2018 23:00 1,6 C 92 % 990 hPa 0,0 l/m 5,4 km/h (2 Bft) W-SW 247 0,4 C 1,6 C 8,6 km/h (2 Bft)
20.01.2018 22:50 1,6 C 92 % 989 hPa 0,0 l/m 5,0 km/h (1 Bft) W-NW 292 0,4 C 1,6 C 8,6 km/h (2 Bft)
20.01.2018 22:40 1,6 C 92 % 989 hPa 0,0 l/m 4,7 km/h (1 Bft) W 270 0,4 C 1,6 C 8,6 km/h (2 Bft)
20.01.2018 22:30 1,6 C 92 % 989 hPa 0,0 l/m 5,0 km/h (1 Bft) W-NW 292 0,4 C 1,6 C 6,5 km/h (2 Bft)
20.01.2018 22:20 1,6 C 92 % 989 hPa 0,0 l/m 4,3 km/h (1 Bft) W-SW 247 0,4 C 1,6 C 8,6 km/h (2 Bft)
20.01.2018 22:10 1,6 C 91 % 989 hPa 0,0 l/m 5,8 km/h (2 Bft) W-SW 247 0,3 C 1,6 C 6,5 km/h (2 Bft)
20.01.2018 22:00 1,7 C 91 % 989 hPa 0,0 l/m 5,8 km/h (2 Bft) W-NW 292 0,4 C 1,7 C 8,6 km/h (2 Bft)
20.01.2018 21:50 1,8 C 91 % 989 hPa 0,0 l/m 5,0 km/h (1 Bft) W 270 0,5 C 1,8 C 6,5 km/h (2 Bft)
20.01.2018 21:40 1,9 C 91 % 989 hPa 0,0 l/m 6,1 km/h (2 Bft) W 270 0,6 C 1,9 C 6,5 km/h (2 Bft)
20.01.2018 21:30 1,9 C 91 % 988 hPa 0,0 l/m 4,3 km/h (1 Bft) W-SW 247 0,6 C 1,9 C 6,5 km/h (2 Bft)
20.01.2018 21:20 1,9 C 91 % 988 hPa 0,5 l/m 4,3 km/h (1 Bft) W 270 0,6 C 1,9 C 6,5 km/h (2 Bft)
20.01.2018 21:10 1,8 C 91 % 988 hPa 0,0 l/m 3,2 km/h (1 Bft) W-SW 247 0,5 C 1,8 C 4,3 km/h (1 Bft)
20.01.2018 21:00 1,9 C 91 % 988 hPa 0,0 l/m 0,0 km/h (0 Bft) W-SW 247 0,6 C 1,9 C 0,0 km/h (0 Bft)
20.01.2018 20:50 1,9 C 91 % 988 hPa 0,0 l/m 0,0 km/h (0 Bft) W-NW 292 0,6 C 1,9 C 0,0 km/h (0 Bft)
20.01.2018 20:40 1,8 C 91 % 988 hPa 0,0 l/m 0,0 km/h (0 Bft) W 270 0,5 C 1,8 C 0,0 km/h (0 Bft)
20.01.2018 20:30 1,7 C 91 % 987 hPa 0,0 l/m 0,0 km/h (0 Bft) W-SW 247 0,4 C 1,7 C 0,0 km/h (0 Bft)
20.01.2018 20:20 1,7 C 91 % 987 hPa 0,0 l/m 0,0 km/h (0 Bft) S-SW 202 0,4 C 1,7 C 0,0 km/h (0 Bft)
20.01.2018 20:10 1,7 C 91 % 987 hPa 0,0 l/m 0,4 km/h (0 Bft) S-SW 202 0,4 C 1,7 C 2,2 km/h (1 Bft)
20.01.2018 20:00 1,7 C 91 % 987 hPa 0,0 l/m 0,0 km/h (0 Bft) SO 135 0,4 C 1,7 C 0,0 km/h (0 Bft)
20.01.2018 19:50 1,6 C 91 % 987 hPa 0,0 l/m 0,0 km/h (0 Bft) O-SO 112 0,3 C 1,6 C 2,2 km/h (1 Bft)
20.01.2018 19:40 1,6 C 91 % 987 hPa 0,0 l/m 0,0 km/h (0 Bft) O 90 0,3 C 1,6 C 0,0 km/h (0 Bft)
20.01.2018 19:30 1,6 C 91 % 987 hPa 0,0 l/m 0,0 km/h (0 Bft) NO 45 0,3 C 1,6 C 0,0 km/h (0 Bft)
20.01.2018 19:20 1,6 C 91 % 987 hPa 0,0 l/m 0,7 km/h (0 Bft) O-NO 67 0,3 C 1,6 C 2,2 km/h (1 Bft)
20.01.2018 19:10 1,6 C 91 % 987 hPa 0,0 l/m 0,0 km/h (0 Bft) O-NO 67 0,3 C 1,6 C 0,0 km/h (0 Bft)
20.01.2018 19:00 1,6 C 91 % 987 hPa 0,0 l/m 2,5 km/h (1 Bft) O 90 0,3 C 1,6 C 4,3 km/h (1 Bft)
20.01.2018 18:50 1,6 C 91 % 987 hPa 0,0 l/m 2,2 km/h (1 Bft) O-NO 67 0,3 C 1,6 C 4,3 km/h (1 Bft)
20.01.2018 18:40 1,6 C 91 % 987 hPa 0,0 l/m 0,0 km/h (0 Bft) O 90 0,3 C 1,6 C 2,2 km/h (1 Bft)
20.01.2018 18:30 1,6 C 91 % 987 hPa 0,0 l/m 2,2 km/h (1 Bft) O-SO 112 0,3 C 1,6 C 4,3 km/h (1 Bft)
20.01.2018 18:20 1,6 C 91 % 987 hPa 0,0 l/m 0,0 km/h (0 Bft) O-NO 67 0,3 C 1,6 C 2,2 km/h (1 Bft)
20.01.2018 18:10 1,6 C 91 % 987 hPa 0,0 l/m 1,8 km/h (1 Bft) O-NO 67 0,3 C 1,6 C 4,3 km/h (1 Bft)
20.01.2018 18:00 1,6 C 91 % 987 hPa 0,0 l/m 0,0 km/h (0 Bft) O 90 0,3 C 1,6 C 0,0 km/h (0 Bft)
20.01.2018 17:50 1,5 C 91 % 986 hPa 0,0 l/m 0,7 km/h (0 Bft) O 90 0,2 C 1,5 C 2,2 km/h (1 Bft)
20.01.2018 17:40 1,6 C 91 % 986 hPa 0,0 l/m 1,8 km/h (1 Bft) O-NO 67 0,3 C 1,6 C 4,3 km/h (1 Bft)
20.01.2018 17:30 1,6 C 91 % 986 hPa 0,0 l/m 1,8 km/h (1 Bft) N-NO 22 0,3 C 1,6 C 6,5 km/h (2 Bft)
20.01.2018 17:20 1,6 C 91 % 987 hPa 0,0 l/m 3,2 km/h (1 Bft) O-NO 67 0,3 C 1,6 C 4,3 km/h (1 Bft)
20.01.2018 17:10 1,7 C 90 % 987 hPa 0,0 l/m 2,9 km/h (1 Bft) O-SO 112 0,2 C 1,7 C 4,3 km/h (1 Bft)
20.01.2018 17:00 1,7 C 90 % 987 hPa 0,0 l/m 4,3 km/h (1 Bft) O 90 0,2 C 1,7 C 6,5 km/h (2 Bft)
20.01.2018 16:50 1,7 C 90 % 987 hPa 0,0 l/m 3,6 km/h (1 Bft) O 90 0,2 C 1,7 C 6,5 km/h (2 Bft)
20.01.2018 16:40 1,8 C 90 % 987 hPa 0,5 l/m 4,7 km/h (1 Bft) O-NO 67 0,3 C 1,8 C 6,5 km/h (2 Bft)
20.01.2018 16:30 1,9 C 90 % 987 hPa 0,0 l/m 3,6 km/h (1 Bft) SO 135 0,4 C 1,9 C 6,5 km/h (2 Bft)
20.01.2018 16:20 2,0 C 90 % 987 hPa 0,0 l/m 1,4 km/h (1 Bft) NO 45 0,5 C 2,0 C 2,2 km/h (1 Bft)
20.01.2018 16:10 2,0 C 89 % 987 hPa 0,0 l/m 4,7 km/h (1 Bft) O 90 0,4 C 2,0 C 6,5 km/h (2 Bft)
20.01.2018 16:00 2,2 C 89 % 987 hPa 0,0 l/m 4,7 km/h (1 Bft) O 90 0,6 C 2,2 C 6,5 km/h (2 Bft)
20.01.2018 15:50 2,4 C 89 % 988 hPa 0,0 l/m 2,5 km/h (1 Bft) S-SW 202 0,8 C 2,4 C 6,5 km/h (2 Bft)
20.01.2018 15:40 2,5 C 89 % 988 hPa 0,6 l/m 1,1 km/h (1 Bft) SW 225 0,9 C 2,5 C 4,3 km/h (1 Bft)
20.01.2018 15:30 2,6 C 89 % 988 hPa 0,0 l/m 0,7 km/h (0 Bft) O-NO 67 1,0 C 2,6 C 4,3 km/h (1 Bft)
20.01.2018 15:20 2,8 C 88 % 988 hPa 0,0 l/m 0,7 km/h (0 Bft) SO 135 1,0 C 2,8 C 2,2 km/h (1 Bft)
20.01.2018 15:10 2,9 C 88 % 988 hPa 0,0 l/m 0,7 km/h (0 Bft) NO 45 1,1 C 2,9 C 4,3 km/h (1 Bft)
20.01.2018 15:00 3,0 C 88 % 988 hPa 0,5 l/m 0,0 km/h (0 Bft) N-NO 22 1,2 C 3,0 C 0,0 km/h (0 Bft)
20.01.2018 14:50 3,1 C 89 % 988 hPa 0,0 l/m 5,8 km/h (2 Bft) O-NO 67 1,5 C 3,1 C 6,5 km/h (2 Bft)
20.01.2018 14:40 3,2 C 88 % 989 hPa 0,0 l/m 1,8 km/h (1 Bft) NO 45 1,4 C 3,2 C 8,6 km/h (2 Bft)
20.01.2018 14:30 3,2 C 87 % 989 hPa 0,0 l/m 0,4 km/h (0 Bft) O-SO 112 1,2 C 3,2 C 2,2 km/h (1 Bft)
20.01.2018 14:20 3,3 C 86 % 989 hPa 0,0 l/m 2,5 km/h (1 Bft) O-NO 67 1,2 C 3,3 C 4,3 km/h (1 Bft)
20.01.2018 14:10 3,4 C 86 % 989 hPa 0,0 l/m 1,8 km/h (1 Bft) O 90 1,3 C 3,4 C 6,5 km/h (2 Bft)
20.01.2018 14:00 3,5 C 86 % 989 hPa 0,5 l/m 7,6 km/h (2 Bft) SW 225 1,4 C 2,4 C 11,2 km/h (2 Bft)
20.01.2018 13:50 3,6 C 85 % 990 hPa 0,0 l/m 1,8 km/h (1 Bft) O-NO 67 1,3 C 3,6 C 4,3 km/h (1 Bft)
20.01.2018 13:40 3,6 C 84 % 990 hPa 0,0 l/m 6,8 km/h (2 Bft) O-SO 112 1,2 C 3,2 C 8,6 km/h (2 Bft)
20.01.2018 13:30 3,8 C 84 % 990 hPa 0,0 l/m 2,9 km/h (1 Bft) SW 225 1,4 C 3,8 C 6,5 km/h (2 Bft)
20.01.2018 13:20 4,0 C 84 % 991 hPa 0,0 l/m 9,0 km/h (2 Bft) SW 225 1,5 C 1,7 C 13,3 km/h (3 Bft)
20.01.2018 13:10 4,1 C 83 % 991 hPa 0,0 l/m 10,8 km/h (2 Bft) S-SW 202 1,5 C 0,5 C 13,3 km/h (3 Bft)
20.01.2018 13:00 4,2 C 82 % 991 hPa 0,0 l/m 6,1 km/h (2 Bft) SW 225 1,4 C 4,2 C 11,2 km/h (2 Bft)
20.01.2018 12:50 4,2 C 81 % 991 hPa 0,0 l/m 6,5 km/h (2 Bft) S-SW 202 1,2 C 4,1 C 8,6 km/h (2 Bft)
20.01.2018 12:40 4,2 C 81 % 991 hPa 0,0 l/m 7,9 km/h (2 Bft) O-SO 112 1,2 C 2,8 C 11,2 km/h (2 Bft)
20.01.2018 12:30 4,2 C 81 % 991 hPa 0,0 l/m 6,8 km/h (2 Bft) S-SW 202 1,2 C 3,8 C 8,6 km/h (2 Bft)
20.01.2018 12:20 4,1 C 81 % 992 hPa 0,0 l/m 6,1 km/h (2 Bft) SW 225 1,1 C 4,1 C 8,6 km/h (2 Bft)
20.01.2018 12:10 4,1 C 81 % 992 hPa 0,0 l/m 7,6 km/h (2 Bft) O-NO 67 1,1 C 3,0 C 11,2 km/h (2 Bft)
20.01.2018 12:00 4,0 C 81 % 992 hPa 0,0 l/m 8,3 km/h (2 Bft) S 180 1,0 C 2,3 C 11,2 km/h (2 Bft)
_ Min-Zeit 08:10 12:00 17:30 - 15:00 - - 08:10 02:20 15:00
Minimum _ 1,0 C 81 % 986 hPa - 0,0 km/h (0 Bft) - - -0,2 C -2,1 C 0,0 km/h (0 Bft)
_ Max-Zeit 12:30 01:40 09:40 15:40 02:20 - - 13:20 13:00 01:40
Maximum _ 4,2 C 93 % 1003 hPa 0,6 l/m 11,2 km/h
NW (2 Bft)
- - 1,5 C 4,2 C 15,5 km/h
NW (3 Bft)
Durchschnitt _ 2,2 C 90 % 993 hPa #2,6 l/m 5,0 km/h (1 Bft) W-SW - 0,7 C 1,8 C 7,8 km/h (2 Bft)
www.klaudt.eu